Time;durP1;ratioP1;P1;durP2;ratioP2;P2;SDS_P1;SDS_P2;PMS_P1;PMS_P2;Temp;Humidity;BMP_temperature;BMP_pressure;BME280_temperature;BME280_humidity;BME280_pressure;Samples;Min_cycle;Max_cycle;Signal;HPM_P1;HPM_P2
2021/01/10 00:00:47;;;;;;;25.13;13.00;;;-3274.50;75.10;;;-4.83;76.53;96437.84;4999315;28;20062;-71
2021/01/10 00:03:13;;;;;;;23.33;12.10;;;-3274.50;75.00;;;-4.80;76.50;96440.25;4994251;28;20126;-71
2021/01/10 00:05:40;;;;;;;25.98;11.88;;;-3274.60;75.40;;;-4.77;76.49;96438.34;5004836;28;20088;-70
2021/01/10 00:08:06;;;;;;;22.65;11.85;;;-3274.60;75.30;;;-4.73;76.75;96434.69;4987047;28;20041;-69
2021/01/10 00:10:32;;;;;;;24.60;12.88;;;-3274.70;75.60;;;-4.69;76.79;96435.34;4984374;28;20058;-69
2021/01/10 00:13:02;;;;;;;26.05;12.70;;;-3274.70;75.60;;;-4.65;77.55;96427.38;4985823;28;20042;-69
2021/01/10 00:15:28;;;;;;;25.35;12.85;;;-3274.70;76.30;;;-4.60;76.84;96432.25;4985875;28;20031;-69
2021/01/10 00:17:54;;;;;;;28.70;13.63;;;-3274.80;76.10;;;-4.57;77.12;96429.50;4985186;28;20731;-69
2021/01/10 00:20:20;;;;;;;26.55;12.80;;;-3274.90;76.30;;;-4.54;77.11;96419.03;4984897;28;20053;-69
2021/01/10 00:22:52;;;;;;;27.42;13.52;;;-3274.90;76.50;;;-4.49;77.91;96421.38;4983357;28;20039;-68
2021/01/10 00:25:18;;;;;;;26.88;13.27;;;-3275.00;76.70;;;-4.44;77.08;96425.31;4969033;28;20034;-69
2021/01/10 00:27:44;;;;;;;28.55;12.65;;;-3275.00;76.50;;;-4.45;76.97;96423.66;4984548;28;20049;-69
2021/01/10 00:30:12;;;;;;;27.23;13.15;;;-3274.90;76.50;;;-4.45;77.30;96418.53;4985446;28;20062;-70
2021/01/10 00:32:38;;;;;;;26.00;13.18;;;-3274.90;76.50;;;-4.43;76.86;96416.69;4984829;28;20038;-71
2021/01/10 00:35:05;;;;;;;25.92;12.48;;;-3274.90;76.40;;;-4.46;77.03;96411.75;4985096;28;20045;-69
2021/01/10 00:37:31;;;;;;;24.08;12.82;;;-3274.80;76.10;;;-4.49;76.93;96416.25;4983924;28;20069;-72
2021/01/10 00:39:57;;;;;;;25.15;13.10;;;-3274.80;75.80;;;-4.52;76.66;96412.09;4967122;28;20066;-69
2021/01/10 00:42:22;;;;;;;25.73;12.98;;;-3274.70;75.90;;;-4.57;76.68;96415.84;4985215;28;20121;-71
2021/01/10 00:44:48;;;;;;;24.27;12.35;;;-3274.60;75.60;;;-4.59;76.58;96420.22;4986313;28;20078;-70
2021/01/10 00:47:17;;;;;;;26.30;12.30;;;-3274.60;75.60;;;-4.64;76.75;96423.06;4987359;28;20022;-69
2021/01/10 00:49:44;;;;;;;25.40;12.52;;;-3274.60;75.60;;;-4.68;76.66;96426.72;4985723;28;20122;-69
2021/01/10 00:52:10;;;;;;;24.65;11.90;;;-3274.50;75.30;;;-4.74;76.58;96432.22;4987869;28;20121;-71
2021/01/10 00:54:36;;;;;;;28.15;12.38;;;-3274.50;75.20;;;-4.83;76.58;96425.03;4985312;28;20565;-71
2021/01/10 00:57:02;;;;;;;25.15;12.43;;;-3274.40;75.10;;;-4.89;76.47;96426.22;4985199;28;20117;-69
2021/01/10 00:59:27;;;;;;;26.50;13.05;;;-3274.30;74.90;;;-4.95;76.51;96429.97;4982162;28;20125;-69
2021/01/10 01:01:53;;;;;;;29.10;14.32;;;-3274.30;74.90;;;-4.98;76.67;96419.88;4987014;28;20485;-70
2021/01/10 01:04:19;;;;;;;27.75;12.68;;;-3274.20;75.30;;;-5.01;76.51;96426.88;4985640;28;20435;-68
2021/01/10 01:06:45;;;;;;;25.60;12.30;;;-3274.20;74.80;;;-5.07;76.42;96425.50;4986087;28;20045;-68
2021/01/10 01:09:11;;;;;;;27.10;12.88;;;-3274.10;74.20;;;-5.13;76.37;96430.16;4985798;28;20026;-69
2021/01/10 01:11:38;;;;;;;25.55;11.98;;;-3274.10;74.00;;;-5.20;76.18;96423.72;4987325;28;20073;-70
2021/01/10 01:14:05;;;;;;;24.17;12.02;;;-3274.00;73.70;;;-5.25;76.21;96427.34;4986934;28;20038;-69
2021/01/10 01:16:31;;;;;;;26.70;12.05;;;-3274.00;74.00;;;-5.30;76.16;96423.38;4985128;28;20474;-69
2021/01/10 01:18:57;;;;;;;29.20;12.90;;;-3274.00;73.90;;;-5.34;76.50;96427.03;4986650;28;20159;-70
2021/01/10 01:21:22;;;;;;;20.95;11.45;;;-3273.90;74.30;;;-5.40;76.13;96430.75;4986023;28;20037;-70
2021/01/10 01:23:49;;;;;;;25.13;11.15;;;-3273.80;73.80;;;-5.46;75.78;96435.38;4986438;28;20516;-69
2021/01/10 01:26:20;;;;;;;25.08;12.05;;;-3273.70;73.80;;;-5.53;76.19;96431.50;4953610;28;20076;-70
2021/01/10 01:28:46;;;;;;;27.83;12.70;;;-3273.70;74.30;;;-5.60;76.22;96436.97;4986652;28;20102;-71
2021/01/10 01:31:13;;;;;;;25.35;13.85;;;-3273.60;74.70;;;-5.64;76.23;96430.34;4986430;28;20045;-71
2021/01/10 01:33:39;;;;;;;25.85;12.98;;;-3273.70;75.00;;;-5.65;76.13;96428.69;4986485;28;20050;-69
2021/01/10 01:36:09;;;;;;;27.20;12.93;;;-3273.60;75.10;;;-5.67;76.68;96440.75;4986210;28;20061;-69
2021/01/10 01:38:36;;;;;;;28.23;12.85;;;-3273.50;74.90;;;-5.72;75.96;96440.16;4969335;28;20042;-69
2021/01/10 01:41:01;;;;;;;28.50;14.05;;;-3273.50;74.30;;;-5.76;75.86;96436.13;4987767;28;20444;-70
2021/01/10 01:43:27;;;;;;;27.75;12.73;;;-3273.50;74.00;;;-5.81;75.66;96432.16;4985988;28;20038;-71
2021/01/10 01:45:53;;;;;;;30.83;13.00;;;-3273.40;73.60;;;-5.86;76.04;96440.09;4985817;28;20039;-70
2021/01/10 01:48:19;;;;;;;27.80;13.60;;;-3273.40;73.50;;;-5.91;75.72;96440.34;4985519;28;20057;-70
2021/01/10 01:50:44;;;;;;;29.70;13.48;;;-3273.30;73.50;;;-5.94;75.56;96445.63;4986533;28;20081;-69
2021/01/10 01:53:10;;;;;;;25.30;12.27;;;-3273.20;73.00;;;-5.98;75.38;96451.81;4989724;28;20646;-70
2021/01/10 01:55:36;;;;;;;29.63;12.77;;;-3273.10;73.00;;;-6.04;75.44;96446.19;4991639;28;20569;-69
2021/01/10 01:58:05;;;;;;;28.90;13.20;;;-3273.10;73.50;;;-6.06;75.55;96448.84;4989626;28;20502;-71
2021/01/10 02:00:30;;;;;;;26.42;11.70;;;-3273.10;73.90;;;-6.09;75.80;96458.41;4990303;28;20045;-70
2021/01/10 02:02:56;;;;;;;29.08;13.20;;;-3273.10;74.10;;;-6.13;75.64;96452.59;4989118;28;20434;-70
2021/01/10 02:05:22;;;;;;;23.55;11.75;;;-3273.00;74.10;;;-6.14;75.50;96457.78;4990867;28;20066;-69
2021/01/10 02:08:01;;;;;;;29.45;12.82;;;-3273.00;74.00;;;-6.21;76.28;96450.44;4938130;28;20189;-69
2021/01/10 02:10:30;;;;;;;26.42;12.48;;;-3273.00;73.80;;;-6.25;75.99;96454.06;4970160;28;20046;-69
2021/01/10 02:13:00;;;;;;;24.00;12.07;;;-3273.00;73.70;;;-6.31;76.26;96444.16;4979809;28;20042;-68
2021/01/10 02:15:29;;;;;;;27.23;13.25;;;-3273.00;74.10;;;-6.33;75.93;96456.19;4989141;28;20038;-69
2021/01/10 02:17:55;;;;;;;27.13;13.32;;;-3273.00;74.20;;;-6.36;76.25;96453.75;4969797;28;20118;-69
2021/01/10 02:20:32;;;;;;;27.10;12.82;;;-3272.90;74.30;;;-6.39;76.84;96446.25;4969805;28;20121;-69
2021/01/10 02:23:20;;;;;;;28.33;13.02;;;-3272.90;74.20;;;-6.42;76.79;96451.53;4962136;28;20269;-69
2021/01/10 02:25:47;;;;;;;26.45;13.25;;;-3272.80;74.20;;;-6.44;76.04;96457.63;4989583;28;20039;-67
2021/01/10 02:28:21;;;;;;;31.80;14.75;;;-3272.80;74.40;;;-6.50;76.92;96453.66;4988251;28;20038;-70
2021/01/10 02:30:47;;;;;;;29.20;13.52;;;-3272.80;74.70;;;-6.54;76.11;96450.41;4989684;28;20398;-71
2021/01/10 02:33:39;;;;;;;36.05;14.60;;;-3272.80;74.90;;;-6.57;77.65;96457.41;4956981;28;20035;-70
2021/01/10 02:36:25;;;;;;;36.13;14.45;;;-3272.70;75.50;;;-6.58;77.90;96450.63;4989236;28;20038;-69
2021/01/10 02:39:03;;;;;;;28.20;13.00;;;-3272.70;75.80;;;-6.57;77.34;96449.72;4984082;28;20042;-69
2021/01/10 02:41:49;;;;;;;31.00;13.93;;;-3272.80;76.10;;;-6.54;78.37;96449.59;4970612;28;20048;-68
2021/01/10 02:44:23;;;;;;;30.10;13.50;;;-3272.80;76.20;;;-6.59;77.15;96443.84;4994416;28;20108;-71
2021/01/10 02:46:51;;;;;;;28.42;13.25;;;-3272.70;75.70;;;-6.54;76.40;96452.97;4988446;28;20058;-68
2021/01/10 02:49:18;;;;;;;42.28;20.40;;;-3272.70;75.10;;;-6.57;75.85;96458.22;4988339;28;20038;-69
2021/01/10 02:51:45;;;;;;;51.00;23.33;;;-3272.70;74.60;;;-6.59;76.05;96454.09;4990047;28;20521;-70
2021/01/10 02:54:12;;;;;;;32.72;16.48;;;-3272.70;74.00;;;-6.62;75.95;96454.25;4988562;28;20050;-70
2021/01/10 02:56:42;;;;;;;25.90;12.10;;;-3272.70;73.40;;;-6.66;76.55;96455.31;4989138;28;20469;-70
2021/01/10 02:59:08;;;;;;;28.77;13.30;;;-3272.70;74.20;;;-6.71;76.67;96452.97;4951719;28;20053;-71
2021/01/10 03:01:33;;;;;;;29.33;13.57;;;-3272.60;74.70;;;-6.78;76.61;96448.25;4988063;28;20042;-71
2021/01/10 03:03:59;;;;;;;28.48;12.88;;;-3272.60;75.20;;;-6.73;76.84;96457.34;4939996;28;20522;-70
2021/01/10 03:06:25;;;;;;;57.63;13.82;;;-3272.60;75.70;;;-6.74;77.37;96458.25;4989441;28;20093;-70
2021/01/10 03:08:50;;;;;;;93.55;15.40;;;-3272.60;76.40;;;-6.76;77.12;96452.38;4988166;28;20066;-69
2021/01/10 03:11:16;;;;;;;53.97;12.63;;;-3272.50;77.00;;;-6.81;77.23;96457.69;4972657;28;20054;-70
2021/01/10 03:13:42;;;;;;;45.15;13.15;;;-3272.40;76.60;;;-6.95;77.03;96457.56;4969014;28;20134;-69
2021/01/10 03:16:08;;;;;;;29.50;12.85;;;-3272.10;76.20;;;-7.01;77.37;96455.31;4985236;28;20046;-71
2021/01/10 03:18:34;;;;;;;32.20;14.68;;;-3272.10;77.00;;;-7.03;77.34;96457.06;4988235;28;20490;-70
2021/01/10 03:21:00;;;;;;;38.92;14.38;;;-3272.10;77.60;;;-7.06;77.57;96454.66;4989641;28;20034;-69
2021/01/10 03:23:25;;;;;;;30.35;13.77;;;-3272.20;77.70;;;-7.11;77.06;96459.19;4989562;28;20034;-70
2021/01/10 03:25:51;;;;;;;27.58;12.02;;;-3272.10;76.40;;;-7.11;77.17;96457.44;4989978;28;20042;-71
2021/01/10 03:28:17;;;;;;;37.38;15.00;;;-3272.10;76.50;;;-7.15;77.35;96452.56;4989547;28;20045;-69
2021/01/10 03:30:42;;;;;;;36.13;14.00;;;-3272.10;76.50;;;-7.20;77.29;96446.84;4990570;28;20054;-69
2021/01/10 03:33:08;;;;;;;30.98;14.38;;;-3272.00;77.00;;;-7.22;77.24;96443.53;4990398;28;20050;-70
2021/01/10 03:35:39;;;;;;;38.47;15.10;;;-3272.00;76.90;;;-7.24;77.46;96441.06;4989911;28;20105;-69
2021/01/10 03:38:05;;;;;;;35.20;15.18;;;-3272.00;76.50;;;-7.23;77.23;96436.78;4990062;28;20034;-70
2021/01/10 03:40:31;;;;;;;43.40;16.60;;;-3272.00;77.00;;;-7.22;77.87;96446.09;4988481;28;20046;-71
2021/01/10 03:42:56;;;;;;;45.72;17.05;;;-3272.00;77.30;;;-7.24;77.79;96437.66;4988399;28;20092;-71
2021/01/10 03:45:22;;;;;;;40.65;17.13;;;-3272.10;77.80;;;-7.23;77.92;96436.78;4987667;28;20565;-71
2021/01/10 03:47:48;;;;;;;52.42;16.98;;;-3272.20;78.10;;;-7.20;77.86;96444.28;4987834;28;20031;-71
2021/01/10 03:50:14;;;;;;;52.95;18.13;;;-3272.20;78.20;;;-7.17;78.28;96442.41;4988867;28;20097;-70
2021/01/10 03:52:39;;;;;;;52.92;19.08;;;-3272.20;78.80;;;-7.16;78.53;96438.13;4987560;28;20054;-72
2021/01/10 03:55:06;;;;;;;50.22;18.33;;;-3272.20;78.90;;;-7.15;78.89;96438.06;4988739;28;20034;-70
2021/01/10 03:57:32;;;;;;;65.53;18.75;;;-3272.20;79.20;;;-7.15;78.67;96440.59;4987476;28;20034;-72
2021/01/10 03:59:58;;;;;;;56.88;15.95;;;-3272.20;79.30;;;-7.19;78.84;96438.28;4987321;28;20039;-70
2021/01/10 04:02:24;;;;;;;70.55;16.55;;;-3272.10;79.90;;;-7.21;79.21;96440.09;4986669;28;20470;-70
2021/01/10 04:04:50;;;;;;;87.22;16.42;;;-3272.00;80.20;;;-7.22;79.48;96435.88;4988403;28;20038;-70
2021/01/10 04:07:15;;;;;;;82.03;17.27;;;-3272.00;80.20;;;-7.25;79.12;96436.81;4986487;28;20561;-71
2021/01/10 04:09:41;;;;;;;80.15;17.33;;;-3272.00;80.10;;;-7.25;79.74;96438.53;4988593;28;20034;-70
2021/01/10 04:12:07;;;;;;;57.67;15.35;;;-3272.00;80.70;;;-7.26;79.60;96447.13;4987282;28;20671;-68
2021/01/10 04:14:33;;;;;;;85.82;16.23;;;-3272.00;80.70;;;-7.35;79.21;96442.44;4987192;28;20061;-70
2021/01/10 04:16:59;;;;;;;44.35;12.85;;;-3271.80;80.30;;;-7.44;79.56;96439.44;4988291;28;20038;-69
2021/01/10 04:19:25;;;;;;;51.83;15.30;;;-3271.80;81.20;;;-7.42;79.94;96442.75;4988546;28;20062;-70
2021/01/10 04:21:50;;;;;;;35.90;11.88;;;-3271.90;81.10;;;-7.46;79.30;96445.50;4988845;28;20078;-70
2021/01/10 04:24:16;;;;;;;50.97;12.23;;;-3271.70;80.20;;;-7.53;79.22;96450.06;4987752;28;20038;-70
2021/01/10 04:26:49;;;;;;;57.20;14.25;;;-3271.70;80.50;;;-7.53;80.96;96450.06;4988136;28;20077;-69
2021/01/10 04:29:17;;;;;;;67.15;15.15;;;-3271.70;81.00;;;-7.50;80.10;96452.47;4987869;28;20398;-69
2021/01/10 04:31:43;;;;;;;64.10;14.07;;;-3271.80;81.00;;;-7.55;80.09;96445.91;4988680;28;20026;-70
2021/01/10 04:34:08;;;;;;;63.35;14.13;;;-3271.80;81.10;;;-7.48;79.67;96450.66;4986624;28;20395;-70
2021/01/10 04:36:34;;;;;;;49.72;13.85;;;-3271.80;81.10;;;-7.49;79.75;96446.47;4987242;28;20209;-69
2021/01/10 04:39:00;;;;;;;50.78;13.50;;;-3271.80;81.10;;;-7.48;80.09;96448.09;4988227;28;20148;-70
2021/01/10 04:41:26;;;;;;;44.60;12.95;;;-3271.90;81.60;;;-7.49;80.13;96441.34;4988016;28;20046;-69
2021/01/10 04:43:55;;;;;;;47.22;13.82;;;-3271.80;81.30;;;-7.47;80.49;96448.94;4987402;28;20069;-70
2021/01/10 04:46:21;;;;;;;38.15;11.70;;;-3271.80;81.50;;;-7.46;80.48;96455.72;4985695;28;20671;-69
2021/01/10 04:48:49;;;;;;;30.75;12.20;;;-3271.90;81.50;;;-7.42;80.35;96452.13;4987813;28;20060;-70
2021/01/10 04:51:15;;;;;;;36.75;11.57;;;-3272.00;81.20;;;-7.36;80.17;96446.72;4967190;28;20527;-69
2021/01/10 04:53:46;;;;;;;39.35;11.50;;;-3272.00;81.30;;;-7.33;80.79;96453.41;4969419;28;20098;-68
2021/01/10 04:56:13;;;;;;;57.28;12.75;;;-3272.00;80.90;;;-7.34;80.16;96454.31;4970839;28;20038;-70
2021/01/10 04:58:41;;;;;;;25.00;11.07;;;-3272.00;80.50;;;-7.30;80.25;96451.53;4984770;28;20078;-70
2021/01/10 05:01:06;;;;;;;25.88;10.98;;;-3272.10;80.50;;;-7.26;80.10;96452.22;4970868;28;20034;-69
2021/01/10 05:03:33;;;;;;;29.15;11.32;;;-3272.10;80.40;;;-7.19;80.29;96448.50;4954364;28;20437;-69
2021/01/10 05:05:59;;;;;;;36.25;12.35;;;-3272.20;79.70;;;-7.20;80.11;96447.66;4951239;28;20043;-71
2021/01/10 05:08:25;;;;;;;27.30;11.23;;;-3272.10;80.00;;;-7.16;79.80;96456.03;4981612;28;20621;-70
2021/01/10 05:10:51;;;;;;;34.25;12.30;;;-3272.20;80.00;;;-7.11;80.09;96447.22;4954977;28;20039;-70
2021/01/10 05:13:17;;;;;;;37.72;11.73;;;-3272.30;80.20;;;-7.03;80.26;96454.50;4986240;28;20522;-69
2021/01/10 05:15:43;;;;;;;36.83;12.52;;;-3272.40;80.20;;;-6.97;80.21;96456.81;4987954;28;20088;-70
2021/01/10 05:18:09;;;;;;;29.50;11.85;;;-3272.40;80.30;;;-6.93;80.23;96454.91;4987462;28;20042;-68
2021/01/10 05:20:35;;;;;;;34.30;13.23;;;-3272.50;80.70;;;-6.89;80.20;96456.41;4936734;28;20038;-69
2021/01/10 05:23:01;;;;;;;37.22;13.10;;;-3272.50;80.60;;;-6.85;80.51;96457.94;4986827;28;20034;-69
2021/01/10 05:25:27;;;;;;;63.15;13.30;;;-3272.60;80.60;;;-6.83;80.82;96461.22;4987359;28;20035;-70
2021/01/10 05:27:54;;;;;;;33.35;10.70;;;-3272.50;81.60;;;-6.82;81.36;96462.88;4990259;28;20049;-71
2021/01/10 05:30:31;;;;;;;53.95;11.85;;;-3272.50;81.90;;;-6.79;82.70;96457.63;4988958;28;20033;-70
2021/01/10 05:33:01;;;;;;;39.58;12.23;;;-3272.60;81.70;;;-6.77;80.80;96460.13;4990229;28;20034;-70
2021/01/10 05:35:27;;;;;;;39.72;12.50;;;-3272.70;81.80;;;-6.74;80.63;96447.19;4991428;28;20706;-69
2021/01/10 05:37:57;;;;;;;50.45;12.50;;;-3272.60;81.00;;;-6.72;81.19;96453.88;4991680;28;20097;-71
2021/01/10 05:40:29;;;;;;;42.63;12.35;;;-3272.70;81.00;;;-6.68;80.97;96446.88;4990796;28;20038;-68
2021/01/10 05:42:57;;;;;;;41.22;11.52;;;-3272.70;80.50;;;-6.66;80.54;96452.75;4988833;28;20042;-71
2021/01/10 05:45:36;;;;;;;30.27;11.40;;;-3272.70;80.20;;;-6.64;81.41;96454.31;4989672;28;20027;-69
2021/01/10 05:48:12;;;;;;;23.92;11.25;;;-3272.70;79.70;;;-6.62;80.74;96459.34;4991156;28;20030;-69
2021/01/10 05:50:42;;;;;;;29.50;10.68;;;-3272.70;79.50;;;-6.63;80.66;96447.47;4990689;28;20498;-69
2021/01/10 05:53:23;;;;;;;37.25;10.27;;;-3272.70;79.30;;;-6.64;81.00;96450.94;4990067;28;20030;-70
2021/01/10 05:55:57;;;;;;;;;;;-3272.70;79.40;;;-6.66;81.95;96453.56;4990106;28;20035;-70
2021/01/10 05:58:24;;;;;;;18.48;8.57;;;-3272.70;79.00;;;-6.66;80.05;96445.06;4990290;28;19957;-69
2021/01/10 06:00:51;;;;;;;18.58;8.38;;;-3272.70;78.90;;;-6.65;79.78;96454.41;4989534;28;20091;-70
2021/01/10 06:03:22;;;;;;;19.70;8.93;;;-3272.70;78.50;;;-6.63;79.95;96450.03;4991046;28;20030;-71
2021/01/10 06:05:59;;;;;;;22.80;10.00;;;-3272.80;78.30;;;-6.63;80.67;96448.28;4970038;28;20611;-70
2021/01/10 06:08:38;;;;;;;20.85;9.23;;;-3272.80;78.10;;;-6.61;80.29;96445.66;4976295;28;20117;-71
2021/01/10 06:11:25;;;;;;;20.88;9.88;;;-3272.80;78.00;;;-6.59;80.63;96459.19;4991306;28;20561;-69
2021/01/10 06:14:00;;;;;;;24.25;9.15;;;-3272.80;78.00;;;-6.60;80.16;96462.66;4990721;28;20049;-70
2021/01/10 06:16:29;;;;;;;19.23;9.18;;;-3272.80;77.90;;;-6.59;79.58;96466.88;4989267;28;20030;-69
2021/01/10 06:18:57;;;;;;;20.30;9.35;;;-3272.80;78.00;;;-6.59;79.58;96464.31;4990790;28;20097;-69
2021/01/10 06:21:26;;;;;;;19.27;9.27;;;-3272.80;78.00;;;-6.61;79.65;96456.72;4990929;28;20049;-69
2021/01/10 06:23:59;;;;;;;21.30;9.88;;;-3272.80;77.80;;;-6.59;80.02;96466.88;4973087;28;20035;-69
2021/01/10 06:26:31;;;;;;;21.90;10.23;;;-3272.80;77.60;;;-6.56;79.50;96474.44;4989791;28;20621;-69
2021/01/10 06:29:04;;;;;;;23.85;10.15;;;-3272.80;77.80;;;-6.53;79.41;96476.84;4990604;28;20034;-69
2021/01/10 06:31:35;;;;;;;23.42;10.25;;;-3272.80;77.50;;;-6.50;79.32;96474.94;4989511;28;20049;-71
2021/01/10 06:34:01;;;;;;;25.20;10.77;;;-3272.90;77.40;;;-6.46;79.61;96485.03;4990593;28;20447;-69
2021/01/10 06:36:30;;;;;;;25.95;11.45;;;-3273.00;77.60;;;-6.45;79.35;96482.38;4990089;28;20410;-69
2021/01/10 06:39:11;;;;;;;26.92;12.50;;;-3273.00;77.20;;;-6.48;79.52;96477.44;4989945;28;20037;-69
2021/01/10 06:42:06;;;;;;;31.33;13.07;;;-3272.90;77.00;;;-6.47;80.61;96485.94;4987934;28;20035;-69
2021/01/10 06:44:37;;;;;;;31.20;12.35;;;-3272.90;77.50;;;-6.48;79.68;96492.78;4988828;28;20091;-70
2021/01/10 06:47:04;;;;;;;36.65;14.27;;;-3272.90;77.70;;;-6.57;79.30;96475.31;4988973;28;20051;-71
2021/01/10 06:49:29;;;;;;;34.38;13.38;;;-3272.90;77.60;;;-6.48;79.27;96492.78;4988885;28;20125;-71
2021/01/10 06:51:58;;;;;;;31.85;12.55;;;-3272.90;77.60;;;-6.46;79.67;96505.50;4989916;28;20450;-70
2021/01/10 06:54:24;;;;;;;35.75;14.10;;;-3272.90;77.70;;;-6.46;79.51;96490.97;4989564;28;20042;-70
2021/01/10 06:56:53;;;;;;;31.85;12.98;;;-3272.90;77.80;;;-6.46;79.84;96497.81;4989984;28;20075;-71
2021/01/10 06:59:25;;;;;;;28.70;12.85;;;-3272.90;77.70;;;-6.48;79.76;96492.78;4989541;28;20045;-69
2021/01/10 07:01:56;;;;;;;28.58;12.40;;;-3272.90;77.60;;;-6.47;79.27;96497.00;4983826;28;20034;-71
2021/01/10 07:04:54;;;;;;;31.65;12.65;;;-3272.90;77.60;;;-6.43;80.43;96508.72;4989062;28;20038;-69
2021/01/10 07:07:40;;;;;;;30.58;11.65;;;-3272.90;77.50;;;-6.41;80.29;96501.81;4988166;28;20042;-65
2021/01/10 07:10:08;;;;;;;28.08;12.48;;;-3273.00;77.50;;;-6.39;79.38;96502.56;4987874;28;20040;-67
2021/01/10 07:12:34;;;;;;;27.27;12.48;;;-3273.00;77.40;;;-6.35;79.35;96500.66;4986659;28;20518;-68
2021/01/10 07:15:18;;;;;;;31.83;14.10;;;-3273.10;77.30;;;-6.33;80.32;96502.28;4997215;28;20069;-69
2021/01/10 07:18:04;;;;;;;38.72;16.75;;;-3273.10;77.40;;;-6.28;80.38;96497.75;4988473;28;20129;-67
2021/01/10 07:20:40;;;;;;;70.57;31.38;;;-3273.20;77.30;;;-6.26;79.67;96493.38;4988769;28;20061;-66
2021/01/10 07:23:35;;;;;;;44.92;19.17;;;-3273.20;77.50;;;-6.23;80.23;96493.22;4989431;28;20032;-67
2021/01/10 07:26:01;;;;;;;34.78;14.63;;;-3273.20;76.90;;;-6.21;79.23;96491.41;4966780;28;20046;-67
2021/01/10 07:28:39;;;;;;;39.90;15.55;;;-3273.30;77.00;;;-6.18;79.94;96491.25;4982968;28;20026;-68
2021/01/10 07:31:14;;;;;;;30.58;12.80;;;-3273.30;77.00;;;-6.13;79.91;96495.28;4992288;28;20116;-68
2021/01/10 07:33:40;;;;;;;29.40;12.23;;;-3273.40;77.00;;;-6.09;79.00;96500.22;5001505;28;20110;-69
2021/01/10 07:36:06;;;;;;;31.25;12.65;;;-3273.40;77.00;;;-6.07;79.51;96488.16;5000221;28;20034;-68
2021/01/10 07:38:35;;;;;;;29.92;12.52;;;-3273.50;77.00;;;-6.01;79.67;96504.94;4976895;28;20037;-68
2021/01/10 07:41:27;;;;;;;30.85;12.65;;;-3273.50;76.90;;;-5.98;80.18;96497.09;4999272;28;20034;-70
2021/01/10 07:43:55;;;;;;;27.02;11.73;;;-3273.50;76.40;;;-5.96;79.35;96493.53;4992318;28;20045;-69
2021/01/10 07:46:57;;;;;;;32.85;12.52;;;-3273.60;76.20;;;-5.91;80.15;96499.25;4986933;28;20038;-69
2021/01/10 07:49:28;;;;;;;27.63;11.80;;;-3273.60;76.30;;;-5.91;79.22;96483.06;4984466;28;20031;-69
2021/01/10 07:51:54;;;;;;;54.60;24.17;;;-3273.50;76.10;;;-5.87;79.59;96489.66;4969729;28;20109;-68
2021/01/10 07:54:53;;;;;;;66.72;28.70;;;-3273.60;76.60;;;-5.83;79.99;96501.41;4980813;28;20566;-68
2021/01/10 07:57:32;;;;;;;28.38;13.88;;;-3273.70;76.10;;;-5.80;79.72;96506.38;4988417;28;20030;-69
2021/01/10 08:00:19;;;;;;;26.55;11.82;;;-3273.70;75.80;;;-5.77;79.29;96521.56;4970526;28;20058;-70
2021/01/10 08:03:01;;;;;;;26.75;12.15;;;-3273.70;75.50;;;-5.74;79.34;96513.72;4969162;28;20476;-69
2021/01/10 08:05:35;;;;;;;26.10;12.18;;;-3273.70;75.60;;;-5.69;78.96;96518.59;4982356;28;20057;-68
2021/01/10 08:08:16;;;;;;;30.40;12.52;;;-3273.70;75.20;;;-5.65;79.20;96520.13;4988440;28;20022;-67
2021/01/10 08:10:53;;;;;;;29.88;13.23;;;-3273.80;75.60;;;-5.60;79.13;96518.97;4986091;28;20038;-69
2021/01/10 08:13:37;;;;;;;32.47;14.20;;;-3273.90;75.60;;;-5.55;79.48;96527.22;4986898;28;20039;-71
2021/01/10 08:16:12;;;;;;;75.82;32.40;;;-3274.00;75.50;;;-5.47;79.94;96523.44;4987946;28;20066;-68
2021/01/10 08:18:44;;;;;;;37.67;16.88;;;-3274.10;76.30;;;-5.39;78.93;96516.19;4985775;28;20062;-68
2021/01/10 08:21:11;;;;;;;33.20;14.82;;;-3274.10;75.10;;;-5.35;78.91;96520.22;4987030;28;20046;-69
2021/01/10 08:23:38;;;;;;;53.90;22.45;;;-3274.20;75.30;;;-5.31;78.85;96516.59;4987950;28;20038;-68
2021/01/10 08:26:06;;;;;;;43.00;20.85;;;-3274.30;74.90;;;-5.25;78.64;96518.81;4988081;28;20027;-69
2021/01/10 08:28:34;;;;;;;30.30;14.30;;;-3274.30;74.60;;;-5.19;78.78;96521.06;4987083;28;20532;-70
2021/01/10 08:31:11;;;;;;;29.77;14.27;;;-3274.30;74.20;;;-5.12;78.46;96519.81;4986607;28;20026;-69
2021/01/10 08:33:37;;;;;;;30.27;13.23;;;-3274.40;74.20;;;-5.06;78.30;96519.47;4987446;28;20399;-71
2021/01/10 08:36:19;;;;;;;27.85;12.60;;;-3274.60;74.00;;;-5.02;78.25;96525.28;4988473;28;20030;-70
2021/01/10 08:39:04;;;;;;;35.72;15.68;;;-3274.40;73.20;;;-4.98;78.39;96521.63;4986110;28;20038;-70
2021/01/10 08:41:34;;;;;;;30.08;13.30;;;-3274.60;73.70;;;-4.94;78.11;96516.25;4988078;28;20033;-70
2021/01/10 08:44:13;;;;;;;30.45;14.55;;;-3274.60;73.10;;;-4.89;78.28;96522.88;4987896;28;20521;-70
2021/01/10 08:46:41;;;;;;;28.73;13.18;;;-3274.60;73.30;;;-4.87;78.26;96519.31;4985538;28;20050;-69
2021/01/10 08:49:07;;;;;;;41.47;18.30;;;-3274.70;73.20;;;-4.78;78.45;96518.78;4987246;28;20043;-67
2021/01/10 08:51:38;;;;;;;30.85;14.63;;;-3275.00;72.90;;;-4.67;78.11;96513.06;4985570;28;20149;-70
2021/01/10 08:54:09;;;;;;;29.65;13.05;;;-3275.20;71.80;;;-4.54;77.96;96515.75;4967131;28;20058;-69
2021/01/10 08:56:35;;;;;;;26.77;12.73;;;-3275.50;70.60;;;-4.34;78.10;96513.72;4975847;28;20034;-69
2021/01/10 08:59:01;;;;;;;26.67;11.98;;;-3275.70;69.80;;;-4.10;78.26;96518.34;4986453;28;20035;-69
2021/01/10 09:01:26;;;;;;;27.10;12.98;;;-3276.20;69.30;;;-3.87;77.79;96520.41;4986055;28;20088;-70
2021/01/10 09:04:01;;;;;;;23.02;11.80;;;-3276.50;67.80;;;-3.64;76.99;96515.66;4986500;28;20066;-69
2021/01/10 09:06:47;;;;;;;28.92;13.52;;;-3276.70;66.80;;;-3.43;76.65;96512.59;4987172;28;20085;-70
2021/01/10 09:09:31;;;;;;;22.38;10.93;;;0.00;66.50;;;-3.26;75.03;96518.47;4971777;28;20125;-69
2021/01/10 09:12:22;;;;;;;26.45;11.77;;;0.00;65.30;;;-3.12;75.45;96514.16;4987846;28;20092;-70
2021/01/10 09:15:16;;;;;;;25.60;12.02;;;0.20;65.20;;;-3.02;74.93;96519.53;4982476;28;20038;-70
2021/01/10 09:17:47;;;;;;;25.27;12.32;;;0.20;65.60;;;-3.00;76.66;96506.56;4987125;28;20038;-69
2021/01/10 09:20:54;;;;;;;23.60;11.52;;;0.40;64.50;;;-2.78;74.36;96519.75;4986766;28;20062;-72
2021/01/10 09:23:20;;;;;;;28.20;13.57;;;0.80;63.70;;;-2.59;76.97;96525.38;4985747;28;20109;-70
2021/01/10 09:25:46;;;;;;;24.83;11.95;;;1.10;63.20;;;-2.38;76.93;96522.34;4970762;28;20185;-70
2021/01/10 09:28:19;;;;;;;23.40;11.63;;;1.20;62.80;;;-2.34;75.63;96524.63;4987068;28;20076;-69
2021/01/10 09:30:56;;;;;;;24.23;12.25;;;1.10;62.30;;;-2.32;74.06;96527.91;4986292;28;20406;-70
2021/01/10 09:33:28;;;;;;;22.80;11.18;;;0.90;62.50;;;-2.34;74.58;96529.78;4987435;28;20061;-69
2021/01/10 09:35:55;;;;;;;23.70;11.52;;;0.80;63.10;;;-2.36;76.17;96530.81;4987158;28;20045;-71
2021/01/10 09:38:22;;;;;;;21.85;11.07;;;0.70;63.20;;;-2.37;75.28;96529.16;4969505;28;20517;-69
2021/01/10 09:41:12;;;;;;;21.38;11.05;;;0.70;63.10;;;-2.32;73.31;96533.06;4987597;28;20129;-68
2021/01/10 09:43:49;;;;;;;35.90;16.38;;;1.10;62.70;;;-2.11;74.11;96536.00;4986264;28;20146;-68
2021/01/10 09:46:38;;;;;;;20.98;11.23;;;1.80;61.90;;;-1.82;72.59;96528.09;4986316;28;20113;-71
2021/01/10 09:49:05;;;;;;;20.70;10.57;;;2.30;59.10;;;-1.56;75.60;96530.59;4983927;28;20089;-69
2021/01/10 09:51:38;;;;;;;22.95;11.60;;;2.60;58.40;;;-1.31;73.31;96521.19;4969658;28;20784;-67
2021/01/10 09:54:18;;;;;;;28.50;14.82;;;2.70;57.50;;;-1.08;72.40;96522.16;4987134;28;20129;-66
2021/01/10 09:56:49;;;;;;;30.77;16.67;;;3.00;57.90;;;-0.94;73.23;96514.25;4986596;28;20473;-70
2021/01/10 09:59:43;;;;;;;25.95;12.95;;;3.10;56.30;;;-0.76;70.36;96515.53;4986792;28;20030;-70
2021/01/10 10:02:26;;;;;;;23.90;12.68;;;3.40;55.10;;;-0.59;71.37;96510.94;4986434;28;20526;-67
2021/01/10 10:05:32;;;;;;;21.02;12.07;;;3.50;54.90;;;-0.56;71.54;96506.38;4983322;28;20046;-68